sensor_id;sensor_type;location;lat;lon;timestamp;temperature;humidity
48589;DHT22;34369;51.174;6.738;2023-05-08T00:00:32;15.90;66.30
48589;DHT22;34369;51.174;6.738;2023-05-08T00:03:04;15.90;66.20
48589;DHT22;34369;51.174;6.738;2023-05-08T00:05:36;15.90;66.10
48589;DHT22;34369;51.174;6.738;2023-05-08T00:08:09;15.90;66.20
48589;DHT22;34369;51.174;6.738;2023-05-08T00:10:43;15.90;66.50
48589;DHT22;34369;51.174;6.738;2023-05-08T00:13:15;15.80;66.70
48589;DHT22;34369;51.174;6.738;2023-05-08T00:15:48;15.80;66.80
48589;DHT22;34369;51.174;6.738;2023-05-08T00:18:20;15.80;67.00
48589;DHT22;34369;51.174;6.738;2023-05-08T00:20:52;15.70;67.00
48589;DHT22;34369;51.174;6.738;2023-05-08T00:23:25;15.70;67.20
48589;DHT22;34369;51.174;6.738;2023-05-08T00:25:58;15.70;67.30
48589;DHT22;34369;51.174;6.738;2023-05-08T00:28:31;15.70;67.50
48589;DHT22;34369;51.174;6.738;2023-05-08T00:31:03;15.60;67.40
48589;DHT22;34369;51.174;6.738;2023-05-08T00:33:36;15.60;67.50
48589;DHT22;34369;51.174;6.738;2023-05-08T00:36:08;15.60;67.40
48589;DHT22;34369;51.174;6.738;2023-05-08T00:38:42;15.50;67.40
48589;DHT22;34369;51.174;6.738;2023-05-08T00:41:15;15.50;67.20
48589;DHT22;34369;51.174;6.738;2023-05-08T00:43:48;15.50;67.30
48589;DHT22;34369;51.174;6.738;2023-05-08T00:46:20;15.50;67.40
48589;DHT22;34369;51.174;6.738;2023-05-08T00:48:52;15.50;67.50
48589;DHT22;34369;51.174;6.738;2023-05-08T00:51:25;15.50;67.50
48589;DHT22;34369;51.174;6.738;2023-05-08T00:53:58;15.40;67.50
48589;DHT22;34369;51.174;6.738;2023-05-08T00:56:33;15.40;67.50
48589;DHT22;34369;51.174;6.738;2023-05-08T00:59:08;15.30;67.70
48589;DHT22;34369;51.174;6.738;2023-05-08T01:01:43;15.30;67.70
48589;DHT22;34369;51.174;6.738;2023-05-08T01:04:18;15.30;67.60
48589;DHT22;34369;51.174;6.738;2023-05-08T01:06:52;15.30;67.70
48589;DHT22;34369;51.174;6.738;2023-05-08T01:09:24;15.20;67.60
48589;DHT22;34369;51.174;6.738;2023-05-08T01:12:06;15.20;67.60
48589;DHT22;34369;51.174;6.738;2023-05-08T01:14:58;15.10;68.10
48589;DHT22;34369;51.174;6.738;2023-05-08T01:17:43;15.10;68.40
48589;DHT22;34369;51.174;6.738;2023-05-08T01:20:31;15.10;68.60
48589;DHT22;34369;51.174;6.738;2023-05-08T01:26:46;15.10;68.40
48589;DHT22;34369;51.174;6.738;2023-05-08T01:30:01;15.10;68.20
48589;DHT22;34369;51.174;6.738;2023-05-08T01:32:54;15.00;68.60
48589;DHT22;34369;51.174;6.738;2023-05-08T01:35:33;15.00;68.10
48589;DHT22;34369;51.174;6.738;2023-05-08T01:38:19;15.00;67.90
48589;DHT22;34369;51.174;6.738;2023-05-08T01:41:01;15.00;68.50
48589;DHT22;34369;51.174;6.738;2023-05-08T01:43:43;15.00;68.30
48589;DHT22;34369;51.174;6.738;2023-05-08T01:46:27;15.00;68.40
48589;DHT22;34369;51.174;6.738;2023-05-08T01:49:08;15.00;68.40
48589;DHT22;34369;51.174;6.738;2023-05-08T01:51:44;15.00;68.60
48589;DHT22;34369;51.174;6.738;2023-05-08T01:54:21;15.00;68.30
48589;DHT22;34369;51.174;6.738;2023-05-08T01:56:58;15.00;68.30
48589;DHT22;34369;51.174;6.738;2023-05-08T01:59:33;15.00;68.50
48589;DHT22;34369;51.174;6.738;2023-05-08T02:02:06;15.00;68.70
48589;DHT22;34369;51.174;6.738;2023-05-08T02:04:44;15.00;68.90
48589;DHT22;34369;51.174;6.738;2023-05-08T02:07:16;15.00;69.30
48589;DHT22;34369;51.174;6.738;2023-05-08T02:09:50;15.00;69.20
48589;DHT22;34369;51.174;6.738;2023-05-08T02:12:27;15.00;69.20
48589;DHT22;34369;51.174;6.738;2023-05-08T02:14:59;15.00;69.10
48589;DHT22;34369;51.174;6.738;2023-05-08T02:17:32;15.00;69.10
48589;DHT22;34369;51.174;6.738;2023-05-08T02:20:09;15.00;69.20
48589;DHT22;34369;51.174;6.738;2023-05-08T02:22:45;15.00;69.30
48589;DHT22;34369;51.174;6.738;2023-05-08T02:25:21;15.00;69.20
48589;DHT22;34369;51.174;6.738;2023-05-08T02:27:54;15.00;69.20
48589;DHT22;34369;51.174;6.738;2023-05-08T02:30:27;15.00;69.00
48589;DHT22;34369;51.174;6.738;2023-05-08T02:33:00;15.00;69.00
48589;DHT22;34369;51.174;6.738;2023-05-08T02:35:36;15.00;69.00
48589;DHT22;34369;51.174;6.738;2023-05-08T02:38:13;15.00;69.00
48589;DHT22;34369;51.174;6.738;2023-05-08T02:40:50;15.00;69.10
48589;DHT22;34369;51.174;6.738;2023-05-08T02:43:25;15.00;69.30
48589;DHT22;34369;51.174;6.738;2023-05-08T02:46:06;15.00;69.30
48589;DHT22;34369;51.174;6.738;2023-05-08T02:48:46;15.00;69.60
48589;DHT22;34369;51.174;6.738;2023-05-08T02:51:36;15.00;69.50
48589;DHT22;34369;51.174;6.738;2023-05-08T02:54:20;15.00;69.80
48589;DHT22;34369;51.174;6.738;2023-05-08T02:56:58;15.00;69.40
48589;DHT22;34369;51.174;6.738;2023-05-08T02:59:36;15.00;69.60
48589;DHT22;34369;51.174;6.738;2023-05-08T03:02:16;15.00;69.60
48589;DHT22;34369;51.174;6.738;2023-05-08T03:04:55;15.00;69.70
48589;DHT22;34369;51.174;6.738;2023-05-08T03:07:32;15.00;69.50
48589;DHT22;34369;51.174;6.738;2023-05-08T03:10:10;14.90;69.30
48589;DHT22;34369;51.174;6.738;2023-05-08T03:12:47;14.90;69.50
48589;DHT22;34369;51.174;6.738;2023-05-08T03:15:32;14.90;69.20
48589;DHT22;34369;51.174;6.738;2023-05-08T03:18:08;14.90;69.60
48589;DHT22;34369;51.174;6.738;2023-05-08T03:20:45;14.90;69.20
48589;DHT22;34369;51.174;6.738;2023-05-08T03:23:20;14.70;69.30
48589;DHT22;34369;51.174;6.738;2023-05-08T03:25:57;14.70;69.40
48589;DHT22;34369;51.174;6.738;2023-05-08T03:28:31;14.70;69.30
48589;DHT22;34369;51.174;6.738;2023-05-08T03:31:04;14.70;69.40
48589;DHT22;34369;51.174;6.738;2023-05-08T03:33:38;14.70;69.30
48589;DHT22;34369;51.174;6.738;2023-05-08T03:36:12;14.70;69.20
48589;DHT22;34369;51.174;6.738;2023-05-08T03:38:50;14.70;69.20
48589;DHT22;34369;51.174;6.738;2023-05-08T03:41:24;14.60;69.40
48589;DHT22;34369;51.174;6.738;2023-05-08T03:43:58;14.50;69.20
48589;DHT22;34369;51.174;6.738;2023-05-08T03:46:32;14.50;69.10
48589;DHT22;34369;51.174;6.738;2023-05-08T03:49:08;14.50;69.20
48589;DHT22;34369;51.174;6.738;2023-05-08T03:51:42;14.50;69.10
48589;DHT22;34369;51.174;6.738;2023-05-08T03:54:19;14.50;69.00
48589;DHT22;34369;51.174;6.738;2023-05-08T03:56:55;14.40;69.00
48589;DHT22;34369;51.174;6.738;2023-05-08T03:59:36;14.40;69.00
48589;DHT22;34369;51.174;6.738;2023-05-08T04:02:20;14.40;69.10
48589;DHT22;34369;51.174;6.738;2023-05-08T04:05:04;14.30;69.00
48589;DHT22;34369;51.174;6.738;2023-05-08T04:07:49;14.30;68.70
48589;DHT22;34369;51.174;6.738;2023-05-08T04:10:29;14.30;68.60
48589;DHT22;34369;51.174;6.738;2023-05-08T04:13:06;14.20;68.70
48589;DHT22;34369;51.174;6.738;2023-05-08T04:15:46;14.20;68.80
48589;DHT22;34369;51.174;6.738;2023-05-08T04:18:24;14.20;68.90
48589;DHT22;34369;51.174;6.738;2023-05-08T04:21:02;14.10;69.00
48589;DHT22;34369;51.174;6.738;2023-05-08T04:23:39;14.10;68.90
48589;DHT22;34369;51.174;6.738;2023-05-08T04:26:17;14.00;68.80
48589;DHT22;34369;51.174;6.738;2023-05-08T04:29:00;14.00;69.00
48589;DHT22;34369;51.174;6.738;2023-05-08T04:31:35;14.00;69.30
48589;DHT22;34369;51.174;6.738;2023-05-08T04:34:10;13.90;69.10
48589;DHT22;34369;51.174;6.738;2023-05-08T04:36:45;13.90;69.30
48589;DHT22;34369;51.174;6.738;2023-05-08T04:39:20;13.90;69.40
48589;DHT22;34369;51.174;6.738;2023-05-08T04:41:56;13.90;69.50
48589;DHT22;34369;51.174;6.738;2023-05-08T04:44:34;13.90;69.60
48589;DHT22;34369;51.174;6.738;2023-05-08T04:47:07;13.90;69.60
48589;DHT22;34369;51.174;6.738;2023-05-08T04:49:40;13.90;69.80
48589;DHT22;34369;51.174;6.738;2023-05-08T04:52:13;13.90;69.90
48589;DHT22;34369;51.174;6.738;2023-05-08T04:54:47;13.90;70.00
48589;DHT22;34369;51.174;6.738;2023-05-08T04:57:25;13.90;70.20
48589;DHT22;34369;51.174;6.738;2023-05-08T05:00:00;13.90;70.30
48589;DHT22;34369;51.174;6.738;2023-05-08T05:02:37;13.90;70.30
48589;DHT22;34369;51.174;6.738;2023-05-08T05:05:10;13.90;70.60
48589;DHT22;34369;51.174;6.738;2023-05-08T05:07:46;13.90;69.90
48589;DHT22;34369;51.174;6.738;2023-05-08T05:10:20;13.90;70.00
48589;DHT22;34369;51.174;6.738;2023-05-08T05:12:57;13.90;70.00
48589;DHT22;34369;51.174;6.738;2023-05-08T05:15:32;13.90;70.10
48589;DHT22;34369;51.174;6.738;2023-05-08T05:18:05;13.90;70.10
48589;DHT22;34369;51.174;6.738;2023-05-08T05:20:38;13.90;70.20
48589;DHT22;34369;51.174;6.738;2023-05-08T05:23:22;14.00;70.40
48589;DHT22;34369;51.174;6.738;2023-05-08T05:25:58;14.00;70.80
48589;DHT22;34369;51.174;6.738;2023-05-08T05:28:35;14.00;70.50
48589;DHT22;34369;51.174;6.738;2023-05-08T05:31:10;14.00;70.70
48589;DHT22;34369;51.174;6.738;2023-05-08T05:33:44;14.00;70.50
48589;DHT22;34369;51.174;6.738;2023-05-08T05:36:21;14.10;70.40
48589;DHT22;34369;51.174;6.738;2023-05-08T05:38:54;14.10;70.50
48589;DHT22;34369;51.174;6.738;2023-05-08T05:41:34;14.10;70.60
48589;DHT22;34369;51.174;6.738;2023-05-08T05:44:10;14.10;70.50
48589;DHT22;34369;51.174;6.738;2023-05-08T05:46:45;14.10;70.70
48589;DHT22;34369;51.174;6.738;2023-05-08T05:49:22;14.20;70.70
48589;DHT22;34369;51.174;6.738;2023-05-08T05:51:58;14.20;70.70
48589;DHT22;34369;51.174;6.738;2023-05-08T05:54:34;14.30;70.70
48589;DHT22;34369;51.174;6.738;2023-05-08T05:57:12;14.30;70.60
48589;DHT22;34369;51.174;6.738;2023-05-08T05:59:54;14.30;70.70
48589;DHT22;34369;51.174;6.738;2023-05-08T06:02:29;14.30;70.80
48589;DHT22;34369;51.174;6.738;2023-05-08T06:05:06;14.40;70.60
48589;DHT22;34369;51.174;6.738;2023-05-08T06:07:43;14.40;70.70
48589;DHT22;34369;51.174;6.738;2023-05-08T06:10:19;14.40;70.60
48589;DHT22;34369;51.174;6.738;2023-05-08T06:12:54;14.50;70.60
48589;DHT22;34369;51.174;6.738;2023-05-08T06:15:31;14.50;70.80
48589;DHT22;34369;51.174;6.738;2023-05-08T06:18:09;14.50;70.50
48589;DHT22;34369;51.174;6.738;2023-05-08T06:20:45;14.50;70.50
48589;DHT22;34369;51.174;6.738;2023-05-08T06:23:22;14.60;70.50
48589;DHT22;34369;51.174;6.738;2023-05-08T06:26:03;14.70;70.40
48589;DHT22;34369;51.174;6.738;2023-05-08T06:28:39;14.70;70.40
48589;DHT22;34369;51.174;6.738;2023-05-08T06:31:17;14.80;70.50
48589;DHT22;34369;51.174;6.738;2023-05-08T06:33:52;14.90;70.70
48589;DHT22;34369;51.174;6.738;2023-05-08T06:36:27;14.90;70.70
48589;DHT22;34369;51.174;6.738;2023-05-08T06:39:03;15.00;70.70
48589;DHT22;34369;51.174;6.738;2023-05-08T06:41:38;15.10;70.80
48589;DHT22;34369;51.174;6.738;2023-05-08T06:44:12;15.10;70.70
48589;DHT22;34369;51.174;6.738;2023-05-08T06:46:56;15.30;70.50
48589;DHT22;34369;51.174;6.738;2023-05-08T06:49:35;15.40;70.40
48589;DHT22;34369;51.174;6.738;2023-05-08T06:52:08;15.50;70.10
48589;DHT22;34369;51.174;6.738;2023-05-08T06:54:41;15.60;70.00
48589;DHT22;34369;51.174;6.738;2023-05-08T06:57:16;15.70;69.90
48589;DHT22;34369;51.174;6.738;2023-05-08T06:59:52;15.80;69.40
48589;DHT22;34369;51.174;6.738;2023-05-08T07:02:30;15.90;69.00
48589;DHT22;34369;51.174;6.738;2023-05-08T07:05:07;16.00;68.90
48589;DHT22;34369;51.174;6.738;2023-05-08T07:07:43;16.10;68.70
48589;DHT22;34369;51.174;6.738;2023-05-08T07:10:19;16.10;68.50
48589;DHT22;34369;51.174;6.738;2023-05-08T07:12:55;16.20;68.40
48589;DHT22;34369;51.174;6.738;2023-05-08T07:15:31;16.30;68.50
48589;DHT22;34369;51.174;6.738;2023-05-08T07:18:09;16.30;68.30
48589;DHT22;34369;51.174;6.738;2023-05-08T07:20:45;16.40;68.10
48589;DHT22;34369;51.174;6.738;2023-05-08T07:23:19;16.50;68.10
48589;DHT22;34369;51.174;6.738;2023-05-08T07:25:55;16.50;68.00
48589;DHT22;34369;51.174;6.738;2023-05-08T07:28:30;16.60;67.70
48589;DHT22;34369;51.174;6.738;2023-05-08T07:31:04;16.70;67.40
48589;DHT22;34369;51.174;6.738;2023-05-08T07:33:42;16.70;67.10
48589;DHT22;34369;51.174;6.738;2023-05-08T07:36:16;16.80;66.80
48589;DHT22;34369;51.174;6.738;2023-05-08T07:38:50;16.80;66.80
48589;DHT22;34369;51.174;6.738;2023-05-08T07:41:26;16.90;66.80
48589;DHT22;34369;51.174;6.738;2023-05-08T07:44:01;17.00;67.10
48589;DHT22;34369;51.174;6.738;2023-05-08T07:46:36;17.00;66.70
48589;DHT22;34369;51.174;6.738;2023-05-08T07:49:12;17.20;66.50
48589;DHT22;34369;51.174;6.738;2023-05-08T07:51:46;17.30;66.70
48589;DHT22;34369;51.174;6.738;2023-05-08T07:54:19;17.50;67.40
48589;DHT22;34369;51.174;6.738;2023-05-08T07:56:52;17.70;67.10
48589;DHT22;34369;51.174;6.738;2023-05-08T07:59:26;18.00;66.40
48589;DHT22;34369;51.174;6.738;2023-05-08T08:02:03;18.20;65.90
48589;DHT22;34369;51.174;6.738;2023-05-08T08:04:39;18.50;65.30
48589;DHT22;34369;51.174;6.738;2023-05-08T08:07:13;18.70;64.20
48589;DHT22;34369;51.174;6.738;2023-05-08T08:09:46;18.90;63.50
48589;DHT22;34369;51.174;6.738;2023-05-08T08:12:20;18.90;62.90
48589;DHT22;34369;51.174;6.738;2023-05-08T08:14:55;19.00;62.50
48589;DHT22;34369;51.174;6.738;2023-05-08T08:17:29;19.00;62.20
48589;DHT22;34369;51.174;6.738;2023-05-08T08:20:07;19.00;62.00
48589;DHT22;34369;51.174;6.738;2023-05-08T08:22:41;19.00;61.60
48589;DHT22;34369;51.174;6.738;2023-05-08T08:25:15;19.00;61.50
48589;DHT22;34369;51.174;6.738;2023-05-08T08:27:50;18.90;61.90
48589;DHT22;34369;51.174;6.738;2023-05-08T08:30:26;18.90;61.70
48589;DHT22;34369;51.174;6.738;2023-05-08T08:33:00;18.90;61.60
48589;DHT22;34369;51.174;6.738;2023-05-08T08:35:37;18.90;61.70
48589;DHT22;34369;51.174;6.738;2023-05-08T08:38:11;18.90;61.80
48589;DHT22;34369;51.174;6.738;2023-05-08T08:40:46;18.90;61.70
48589;DHT22;34369;51.174;6.738;2023-05-08T08:43:21;18.90;61.60
48589;DHT22;34369;51.174;6.738;2023-05-08T08:45:55;18.80;61.60
48589;DHT22;34369;51.174;6.738;2023-05-08T08:48:30;18.80;61.90
48589;DHT22;34369;51.174;6.738;2023-05-08T08:51:13;18.80;62.00
48589;DHT22;34369;51.174;6.738;2023-05-08T08:54:01;18.90;61.80
48589;DHT22;34369;51.174;6.738;2023-05-08T08:56:40;18.90;61.80
48589;DHT22;34369;51.174;6.738;2023-05-08T08:59:15;18.90;62.30
48589;DHT22;34369;51.174;6.738;2023-05-08T09:01:56;19.00;62.00
48589;DHT22;34369;51.174;6.738;2023-05-08T09:04:33;19.00;62.00
48589;DHT22;34369;51.174;6.738;2023-05-08T09:07:09;19.00;62.10
48589;DHT22;34369;51.174;6.738;2023-05-08T09:09:45;19.20;61.80
48589;DHT22;34369;51.174;6.738;2023-05-08T09:12:19;19.20;61.30
48589;DHT22;34369;51.174;6.738;2023-05-08T09:14:53;19.30;61.20
48589;DHT22;34369;51.174;6.738;2023-05-08T09:17:27;19.40;61.20
48589;DHT22;34369;51.174;6.738;2023-05-08T09:20:01;19.40;60.90
48589;DHT22;34369;51.174;6.738;2023-05-08T09:22:38;19.40;60.70
48589;DHT22;34369;51.174;6.738;2023-05-08T09:25:12;19.40;60.30
48589;DHT22;34369;51.174;6.738;2023-05-08T09:27:46;19.40;60.50
48589;DHT22;34369;51.174;6.738;2023-05-08T09:30:19;19.50;60.40
48589;DHT22;34369;51.174;6.738;2023-05-08T09:33:00;19.50;60.30
48589;DHT22;34369;51.174;6.738;2023-05-08T09:35:36;19.50;59.70
48589;DHT22;34369;51.174;6.738;2023-05-08T09:41:11;19.50;60.20
48589;DHT22;34369;51.174;6.738;2023-05-08T09:44:00;19.60;59.80
48589;DHT22;34369;51.174;6.738;2023-05-08T09:46:35;19.60;59.80
48589;DHT22;34369;51.174;6.738;2023-05-08T09:49:17;19.60;59.60
48589;DHT22;34369;51.174;6.738;2023-05-08T09:51:58;19.60;59.50
48589;DHT22;34369;51.174;6.738;2023-05-08T09:54:33;19.70;59.60
48589;DHT22;34369;51.174;6.738;2023-05-08T09:57:13;19.70;59.80
48589;DHT22;34369;51.174;6.738;2023-05-08T09:59:48;19.70;59.70
48589;DHT22;34369;51.174;6.738;2023-05-08T10:02:24;19.80;59.40
48589;DHT22;34369;51.174;6.738;2023-05-08T10:04:58;19.80;59.40
48589;DHT22;34369;51.174;6.738;2023-05-08T10:07:35;19.90;59.70
48589;DHT22;34369;51.174;6.738;2023-05-08T10:10:10;20.00;59.30
48589;DHT22;34369;51.174;6.738;2023-05-08T10:12:54;20.00;59.10
48589;DHT22;34369;51.174;6.738;2023-05-08T10:15:32;20.10;58.50
48589;DHT22;34369;51.174;6.738;2023-05-08T10:18:09;20.10;59.20
48589;DHT22;34369;51.174;6.738;2023-05-08T10:20:55;20.20;59.50
48589;DHT22;34369;51.174;6.738;2023-05-08T10:23:42;20.30;59.20
48589;DHT22;34369;51.174;6.738;2023-05-08T10:26:26;20.40;59.00
48589;DHT22;34369;51.174;6.738;2023-05-08T10:29:12;20.50;58.60
48589;DHT22;34369;51.174;6.738;2023-05-08T10:31:53;20.70;58.60
48589;DHT22;34369;51.174;6.738;2023-05-08T10:34:34;20.80;57.50
48589;DHT22;34369;51.174;6.738;2023-05-08T10:37:12;20.90;57.60
48589;DHT22;34369;51.174;6.738;2023-05-08T10:39:46;20.90;57.40
48589;DHT22;34369;51.174;6.738;2023-05-08T10:42:21;21.00;57.50
48589;DHT22;34369;51.174;6.738;2023-05-08T10:45:00;21.10;57.30
48589;DHT22;34369;51.174;6.738;2023-05-08T10:47:57;21.10;56.50
48589;DHT22;34369;51.174;6.738;2023-05-08T10:50:45;21.20;56.70
48589;DHT22;34369;51.174;6.738;2023-05-08T10:53:33;21.30;56.20
48589;DHT22;34369;51.174;6.738;2023-05-08T10:56:11;21.40;56.10
48589;DHT22;34369;51.174;6.738;2023-05-08T10:58:43;21.50;56.50
48589;DHT22;34369;51.174;6.738;2023-05-08T11:01:18;21.50;55.80
48589;DHT22;34369;51.174;6.738;2023-05-08T11:03:52;21.50;55.80
48589;DHT22;34369;51.174;6.738;2023-05-08T11:06:45;21.60;55.60
48589;DHT22;34369;51.174;6.738;2023-05-08T11:09:25;21.70;55.20
48589;DHT22;34369;51.174;6.738;2023-05-08T11:12:45;21.70;56.00
48589;DHT22;34369;51.174;6.738;2023-05-08T11:15:49;21.90;55.70
48589;DHT22;34369;51.174;6.738;2023-05-08T11:18:24;22.00;55.30
48589;DHT22;34369;51.174;6.738;2023-05-08T11:21:01;22.10;55.10
48589;DHT22;34369;51.174;6.738;2023-05-08T11:23:36;22.20;54.90
48589;DHT22;34369;51.174;6.738;2023-05-08T11:26:12;22.20;53.80
48589;DHT22;34369;51.174;6.738;2023-05-08T11:28:55;22.30;54.20
48589;DHT22;34369;51.174;6.738;2023-05-08T11:31:51;22.30;53.30
48589;DHT22;34369;51.174;6.738;2023-05-08T11:34:46;22.30;54.00
48589;DHT22;34369;51.174;6.738;2023-05-08T11:37:23;22.30;53.80
48589;DHT22;34369;51.174;6.738;2023-05-08T11:43:25;22.50;53.40
48589;DHT22;34369;51.174;6.738;2023-05-08T11:46:22;22.70;52.70
48589;DHT22;34369;51.174;6.738;2023-05-08T11:49:11;22.90;54.00
48589;DHT22;34369;51.174;6.738;2023-05-08T11:51:54;23.10;52.90
48589;DHT22;34369;51.174;6.738;2023-05-08T11:54:35;23.30;51.80
48589;DHT22;34369;51.174;6.738;2023-05-08T11:57:33;23.40;51.70
48589;DHT22;34369;51.174;6.738;2023-05-08T12:00:33;23.50;51.20
48589;DHT22;34369;51.174;6.738;2023-05-08T12:06:20;23.90;51.80
48589;DHT22;34369;51.174;6.738;2023-05-08T12:08:55;24.10;51.50
48589;DHT22;34369;51.174;6.738;2023-05-08T12:11:28;24.20;51.00
48589;DHT22;34369;51.174;6.738;2023-05-08T12:14:01;24.30;51.00
48589;DHT22;34369;51.174;6.738;2023-05-08T12:16:36;24.40;50.70
48589;DHT22;34369;51.174;6.738;2023-05-08T12:19:10;24.40;50.00
48589;DHT22;34369;51.174;6.738;2023-05-08T12:21:45;24.40;49.40
48589;DHT22;34369;51.174;6.738;2023-05-08T12:24:21;24.40;49.00
48589;DHT22;34369;51.174;6.738;2023-05-08T12:26:54;24.30;49.00
48589;DHT22;34369;51.174;6.738;2023-05-08T12:29:28;24.20;49.10
48589;DHT22;34369;51.174;6.738;2023-05-08T12:32:03;24.10;49.20
48589;DHT22;34369;51.174;6.738;2023-05-08T12:34:37;24.00;48.70
48589;DHT22;34369;51.174;6.738;2023-05-08T12:37:11;23.90;49.20
48589;DHT22;34369;51.174;6.738;2023-05-08T12:39:45;23.90;49.20
48589;DHT22;34369;51.174;6.738;2023-05-08T12:42:18;23.70;49.40
48589;DHT22;34369;51.174;6.738;2023-05-08T12:44:52;23.70;49.60
48589;DHT22;34369;51.174;6.738;2023-05-08T12:47:25;23.60;49.70
48589;DHT22;34369;51.174;6.738;2023-05-08T12:50:18;23.70;49.90
48589;DHT22;34369;51.174;6.738;2023-05-08T12:53:14;23.70;49.50
48589;DHT22;34369;51.174;6.738;2023-05-08T12:55:54;23.70;50.40
48589;DHT22;34369;51.174;6.738;2023-05-08T12:58:30;23.70;50.20
48589;DHT22;34369;51.174;6.738;2023-05-08T13:01:07;23.80;50.10
48589;DHT22;34369;51.174;6.738;2023-05-08T13:03:42;23.80;50.20
48589;DHT22;34369;51.174;6.738;2023-05-08T13:06:22;23.80;49.60
48589;DHT22;34369;51.174;6.738;2023-05-08T13:08:55;23.80;49.30
48589;DHT22;34369;51.174;6.738;2023-05-08T13:11:30;23.70;49.00
48589;DHT22;34369;51.174;6.738;2023-05-08T13:14:04;23.60;49.10
48589;DHT22;34369;51.174;6.738;2023-05-08T13:16:45;23.50;49.60
48589;DHT22;34369;51.174;6.738;2023-05-08T13:19:18;23.50;49.40
48589;DHT22;34369;51.174;6.738;2023-05-08T13:21:51;23.50;49.50
48589;DHT22;34369;51.174;6.738;2023-05-08T13:24:23;23.40;49.70
48589;DHT22;34369;51.174;6.738;2023-05-08T13:26:58;23.30;49.80
48589;DHT22;34369;51.174;6.738;2023-05-08T13:29:33;23.30;50.20
48589;DHT22;34369;51.174;6.738;2023-05-08T13:32:30;23.30;50.20
48589;DHT22;34369;51.174;6.738;2023-05-08T13:35:08;23.30;50.90
48589;DHT22;34369;51.174;6.738;2023-05-08T13:38:09;23.40;51.80
48589;DHT22;34369;51.174;6.738;2023-05-08T13:40:52;23.50;51.20
48589;DHT22;34369;51.174;6.738;2023-05-08T13:43:34;23.60;50.90
48589;DHT22;34369;51.174;6.738;2023-05-08T13:46:11;23.70;50.70
48589;DHT22;34369;51.174;6.738;2023-05-08T13:48:52;23.80;50.80
48589;DHT22;34369;51.174;6.738;2023-05-08T13:51:25;23.90;50.00
48589;DHT22;34369;51.174;6.738;2023-05-08T13:53:58;23.90;49.90
48589;DHT22;34369;51.174;6.738;2023-05-08T13:56:34;23.90;50.10
48589;DHT22;34369;51.174;6.738;2023-05-08T13:59:11;23.90;49.70
48589;DHT22;34369;51.174;6.738;2023-05-08T14:01:50;23.90;49.30
48589;DHT22;34369;51.174;6.738;2023-05-08T14:04:26;23.90;49.30
48589;DHT22;34369;51.174;6.738;2023-05-08T14:07:03;23.80;49.60
48589;DHT22;34369;51.174;6.738;2023-05-08T14:09:51;23.70;49.60
48589;DHT22;34369;51.174;6.738;2023-05-08T14:12:40;23.60;49.50
48589;DHT22;34369;51.174;6.738;2023-05-08T14:15:24;23.60;49.70
48589;DHT22;34369;51.174;6.738;2023-05-08T14:17:59;23.50;50.30
48589;DHT22;34369;51.174;6.738;2023-05-08T14:20:33;23.60;49.90
48589;DHT22;34369;51.174;6.738;2023-05-08T14:23:09;23.60;49.80
48589;DHT22;34369;51.174;6.738;2023-05-08T14:25:49;23.60;50.00
48589;DHT22;34369;51.174;6.738;2023-05-08T14:28:42;23.60;49.60
48589;DHT22;34369;51.174;6.738;2023-05-08T14:31:22;23.60;49.20
48589;DHT22;34369;51.174;6.738;2023-05-08T14:33:55;23.70;49.70
48589;DHT22;34369;51.174;6.738;2023-05-08T14:36:27;23.60;50.10
48589;DHT22;34369;51.174;6.738;2023-05-08T14:39:10;23.60;49.70
48589;DHT22;34369;51.174;6.738;2023-05-08T14:41:43;23.60;49.40
48589;DHT22;34369;51.174;6.738;2023-05-08T14:44:16;23.60;49.50
48589;DHT22;34369;51.174;6.738;2023-05-08T14:46:51;23.60;50.00
48589;DHT22;34369;51.174;6.738;2023-05-08T14:49:24;23.60;50.10
48589;DHT22;34369;51.174;6.738;2023-05-08T14:51:59;23.50;49.90
48589;DHT22;34369;51.174;6.738;2023-05-08T14:54:33;23.50;49.60
48589;DHT22;34369;51.174;6.738;2023-05-08T14:57:05;23.50;49.30
48589;DHT22;34369;51.174;6.738;2023-05-08T14:59:39;23.50;49.10
48589;DHT22;34369;51.174;6.738;2023-05-08T15:02:28;23.40;49.30
48589;DHT22;34369;51.174;6.738;2023-05-08T15:05:08;23.30;49.40
48589;DHT22;34369;51.174;6.738;2023-05-08T15:07:54;23.20;49.70
48589;DHT22;34369;51.174;6.738;2023-05-08T15:10:29;23.10;49.60
48589;DHT22;34369;51.174;6.738;2023-05-08T15:13:06;23.00;50.20
48589;DHT22;34369;51.174;6.738;2023-05-08T15:15:40;23.00;50.40
48589;DHT22;34369;51.174;6.738;2023-05-08T15:18:25;23.00;50.60
48589;DHT22;34369;51.174;6.738;2023-05-08T15:21:37;22.90;50.60
48589;DHT22;34369;51.174;6.738;2023-05-08T15:24:27;22.90;50.60
48589;DHT22;34369;51.174;6.738;2023-05-08T15:27:04;22.90;50.80
48589;DHT22;34369;51.174;6.738;2023-05-08T15:29:44;22.80;50.80
48589;DHT22;34369;51.174;6.738;2023-05-08T15:32:22;22.80;50.70
48589;DHT22;34369;51.174;6.738;2023-05-08T15:34:58;22.70;50.60
48589;DHT22;34369;51.174;6.738;2023-05-08T15:37:31;22.70;50.60
48589;DHT22;34369;51.174;6.738;2023-05-08T15:40:08;22.50;50.90
48589;DHT22;34369;51.174;6.738;2023-05-08T15:42:46;22.50;51.20
48589;DHT22;34369;51.174;6.738;2023-05-08T15:45:22;22.40;50.90
48589;DHT22;34369;51.174;6.738;2023-05-08T15:47:58;22.30;51.00
48589;DHT22;34369;51.174;6.738;2023-05-08T15:50:33;22.10;51.10
48589;DHT22;34369;51.174;6.738;2023-05-08T15:53:08;22.00;51.30
48589;DHT22;34369;51.174;6.738;2023-05-08T15:55:43;21.90;51.60
48589;DHT22;34369;51.174;6.738;2023-05-08T15:58:20;21.90;51.60
48589;DHT22;34369;51.174;6.738;2023-05-08T16:00:54;21.70;51.80
48589;DHT22;34369;51.174;6.738;2023-05-08T16:03:33;21.70;52.00
48589;DHT22;34369;51.174;6.738;2023-05-08T16:06:14;21.50;52.10
48589;DHT22;34369;51.174;6.738;2023-05-08T16:08:50;21.50;52.30
48589;DHT22;34369;51.174;6.738;2023-05-08T16:11:24;21.40;52.30
48589;DHT22;34369;51.174;6.738;2023-05-08T16:14:05;21.30;52.40
48589;DHT22;34369;51.174;6.738;2023-05-08T16:16:42;21.20;52.40
48589;DHT22;34369;51.174;6.738;2023-05-08T16:19:19;21.10;52.50
48589;DHT22;34369;51.174;6.738;2023-05-08T16:21:56;21.10;52.60
48589;DHT22;34369;51.174;6.738;2023-05-08T16:24:30;21.00;52.90
48589;DHT22;34369;51.174;6.738;2023-05-08T16:27:04;20.90;53.10
48589;DHT22;34369;51.174;6.738;2023-05-08T16:29:37;20.80;53.20
48589;DHT22;34369;51.174;6.738;2023-05-08T16:32:11;20.80;53.60
48589;DHT22;34369;51.174;6.738;2023-05-08T16:34:43;20.70;53.60
48589;DHT22;34369;51.174;6.738;2023-05-08T16:37:20;20.70;53.70
48589;DHT22;34369;51.174;6.738;2023-05-08T16:39:55;20.60;53.90
48589;DHT22;34369;51.174;6.738;2023-05-08T16:42:30;20.60;54.00
48589;DHT22;34369;51.174;6.738;2023-05-08T16:45:03;20.60;54.10
48589;DHT22;34369;51.174;6.738;2023-05-08T16:47:38;20.60;54.30